Time;durP1;ratioP1;P1;durP2;ratioP2;P2;SDS_P1;SDS_P2;PMS_P1;PMS_P2;Temp;Humidity;BMP_temperature;BMP_pressure;BME280_temperature;BME280_humidity;BME280_pressure;Samples;Min_cycle;Max_cycle;Signal;HPM_P1;HPM_P2
2021/12/16 00:08:39;;;;;;;17.27;10.57;;;6.10;99.90;;;;;;7396283;19;20187;-71
2021/12/16 00:35:44;;;;;;;18.40;11.32;;;6.40;99.90;;;;;;7398111;19;20120;-71
2021/12/16 00:38:16;;;;;;;17.45;12.90;;;6.40;99.90;;;;;;7404135;19;20322;-71
2021/12/16 00:40:46;;;;;;;15.65;10.93;;;6.40;99.90;;;;;;7407509;19;20151;-71
2021/12/16 00:43:23;;;;;;;14.85;9.80;;;6.30;99.90;;;;;;7407269;19;20331;-71
2021/12/16 00:48:48;;;;;;;13.10;9.20;;;6.30;99.90;;;;;;7371188;19;20268;-71
2021/12/16 00:54:11;;;;;;;16.88;10.15;;;6.60;99.90;;;;;;7399295;19;20493;-71
2021/12/16 00:56:45;;;;;;;15.00;9.88;;;6.70;99.90;;;;;;7407568;19;20140;-71
2021/12/16 00:59:16;;;;;;;15.38;10.35;;;6.40;99.90;;;;;;7404516;19;20123;-71
2021/12/16 01:54:52;;;;;;;13.85;9.50;;;6.70;99.90;;;;;;7401552;19;20344;-70
2021/12/16 01:57:20;;;;;;;12.85;9.95;;;6.70;99.90;;;;;;7404020;19;20127;-71
2021/12/16 02:00:04;;;;;;;11.88;8.95;;;6.80;99.90;;;;;;7403548;19;20567;-71
2021/12/16 02:10:44;;;;;;;13.20;9.10;;;6.70;99.90;;;;;;7397527;19;20136;-71
2021/12/16 02:13:38;;;;;;;15.70;10.93;;;6.70;99.90;;;;;;7404599;19;20511;-71
2021/12/16 02:37:37;;;;;;;16.67;12.18;;;6.90;99.90;;;;;;7402207;19;20227;-71
2021/12/16 02:40:09;;;;;;;16.38;11.38;;;7.00;99.90;;;;;;7399523;19;20119;-71
2021/12/16 02:42:53;;;;;;;17.90;11.98;;;7.00;99.90;;;;;;7400386;19;20355;-71
2021/12/16 02:51:06;;;;;;;15.43;10.63;;;7.00;99.90;;;;;;7400792;19;20171;-71
2021/12/16 02:53:37;;;;;;;16.75;11.65;;;7.00;99.90;;;;;;7397279;19;20128;-71
2021/12/16 02:56:04;;;;;;;14.55;10.18;;;7.00;99.90;;;;;;7390316;19;20170;-71
2021/12/16 02:58:32;;;;;;;14.10;9.25;;;7.00;99.90;;;;;;7401660;19;20123;-71
2021/12/16 03:01:12;;;;;;;17.48;11.27;;;6.80;99.90;;;;;;7393098;19;20238;-71
2021/12/16 03:03:42;;;;;;;15.90;10.18;;;6.80;99.90;;;;;;7395033;19;20120;-71
2021/12/16 03:06:13;;;;;;;18.30;11.50;;;6.90;99.90;;;;;;7400970;19;20466;-71
2021/12/16 03:08:47;;;;;;;15.02;9.88;;;6.80;99.90;;;;;;7400766;19;20390;-71
2021/12/16 03:11:46;;;;;;;14.75;9.55;;;6.90;99.90;;;;;;7397954;19;20408;-71
2021/12/16 03:14:25;;;;;;;15.02;9.82;;;7.00;99.90;;;;;;7397971;19;20136;-71
2021/12/16 03:22:24;;;;;;;14.30;9.30;;;7.00;99.90;;;;;;7401050;19;20140;-73
2021/12/16 03:39:07;;;;;;;14.95;9.93;;;6.80;99.90;;;;;;7400505;19;20409;-72
2021/12/16 03:41:37;;;;;;;17.85;11.85;;;6.90;99.90;;;;;;7401396;19;20127;-71
2021/12/16 03:44:10;;;;;;;16.48;10.10;;;6.60;99.90;;;;;;7399954;19;21098;-72
2021/12/16 03:46:47;;;;;;;13.95;10.40;;;6.60;99.90;;;;;;7398160;19;20209;-72
2021/12/16 03:49:23;;;;;;;16.75;10.55;;;6.70;99.90;;;;;;7401795;19;20135;-73
2021/12/16 03:51:55;;;;;;;13.98;10.70;;;6.90;99.90;;;;;;7403180;19;20119;-72
2021/12/16 03:54:28;;;;;;;18.42;12.05;;;6.80;99.90;;;;;;7396961;19;20599;-72
2021/12/16 03:57:06;;;;;;;16.08;10.45;;;6.70;99.90;;;;;;7401808;19;20128;-72
2021/12/16 03:59:36;;;;;;;14.90;10.90;;;6.60;99.90;;;;;;7399361;19;20139;-72
2021/12/16 04:02:14;;;;;;;14.98;9.95;;;6.70;99.90;;;;;;7393294;19;20323;-71
2021/12/16 04:04:48;;;;;;;15.85;10.43;;;6.80;99.90;;;;;;7398902;19;20135;-72
2021/12/16 04:07:21;;;;;;;16.10;10.18;;;6.80;99.90;;;;;;7396978;19;20141;-72
2021/12/16 04:10:20;;;;;;;16.55;10.52;;;6.60;99.90;;;;;;7398629;19;20151;-72
2021/12/16 04:12:50;;;;;;;13.35;9.30;;;6.50;99.90;;;;;;7398731;19;20141;-71
2021/12/16 04:15:22;;;;;;;15.68;11.32;;;6.50;99.90;;;;;;7394881;19;20124;-71
2021/12/16 04:17:51;;;;;;;16.88;10.55;;;6.50;99.90;;;;;;7394003;19;20371;-72
2021/12/16 04:20:18;;;;;;;17.05;10.98;;;6.60;99.90;;;;;;7394011;19;20159;-72
2021/12/16 04:22:46;;;;;;;16.60;10.13;;;6.80;99.90;;;;;;7397531;19;20132;-72
2021/12/16 04:25:31;;;;;;;16.02;10.52;;;6.70;99.90;;;;;;7382780;19;20116;-72
2021/12/16 04:28:06;;;;;;;17.65;10.50;;;6.60;99.90;;;;;;7379897;19;20195;-72
2021/12/16 04:30:33;;;;;;;17.67;10.18;;;6.60;99.90;;;;;;7369176;19;20139;-70
2021/12/16 04:33:07;;;;;;;20.58;11.70;;;6.70;99.90;;;;;;7374165;19;20131;-71
2021/12/16 04:35:41;;;;;;;20.60;13.25;;;6.80;99.90;;;;;;7377982;19;20700;-71
2021/12/16 04:38:12;;;;;;;20.80;13.70;;;6.90;99.90;;;;;;7366432;19;20140;-71
2021/12/16 04:40:47;;;;;;;21.95;11.48;;;6.80;99.90;;;;;;7373483;19;20661;-71
2021/12/16 04:43:20;;;;;;;20.83;12.15;;;6.70;99.90;;;;;;7378906;19;20608;-71
2021/12/16 04:45:59;;;;;;;22.10;12.32;;;6.60;99.90;;;;;;7372667;19;20134;-71
2021/12/16 04:48:31;;;;;;;19.40;11.60;;;6.60;99.90;;;;;;7373107;19;20124;-70
2021/12/16 04:51:03;;;;;;;19.08;12.20;;;6.70;99.90;;;;;;7374223;19;20156;-71
2021/12/16 04:53:30;;;;;;;20.95;12.23;;;6.60;99.90;;;;;;7371584;19;20168;-71
2021/12/16 04:55:57;;;;;;;19.15;11.80;;;6.50;99.90;;;;;;7364414;19;20623;-71
2021/12/16 04:58:32;;;;;;;22.65;12.82;;;6.30;99.90;;;;;;7376624;19;20639;-71
2021/12/16 05:01:01;;;;;;;18.65;12.07;;;6.20;99.90;;;;;;7369888;19;20496;-70
2021/12/16 05:03:37;;;;;;;23.27;13.35;;;6.30;99.90;;;;;;7378058;19;20139;-70
2021/12/16 05:06:07;;;;;;;25.13;13.27;;;6.50;99.90;;;;;;7377418;19;20143;-70
2021/12/16 05:08:35;;;;;;;23.27;12.93;;;6.50;99.90;;;;;;7376504;19;20151;-70
2021/12/16 05:11:16;;;;;;;19.77;13.10;;;6.40;99.90;;;;;;7363876;19;20138;-70
2021/12/16 05:13:45;;;;;;;26.05;15.00;;;6.40;99.90;;;;;;7372033;19;20230;-70
2021/12/16 05:16:14;;;;;;;22.92;13.68;;;6.30;99.90;;;;;;7366293;19;20578;-70
2021/12/16 05:18:48;;;;;;;22.70;13.20;;;6.40;99.90;;;;;;7373610;19;20496;-70
2021/12/16 05:21:57;;;;;;;20.92;13.77;;;6.50;99.90;;;;;;7370064;19;20195;-70
2021/12/16 05:24:27;;;;;;;23.02;14.02;;;6.70;99.90;;;;;;7373620;19;20481;-70
2021/12/16 05:27:21;;;;;;;22.55;12.43;;;6.90;99.90;;;;;;7377920;19;20139;-71
2021/12/16 05:29:47;;;;;;;18.45;12.05;;;7.00;99.90;;;;;;7377822;19;20143;-71
2021/12/16 05:32:16;;;;;;;19.33;11.27;;;7.00;99.90;;;;;;7374691;19;20638;-71
2021/12/16 05:34:43;;;;;;;21.75;13.10;;;7.10;99.90;;;;;;7376817;19;20130;-71
2021/12/16 05:37:12;;;;;;;22.52;11.98;;;7.20;99.90;;;;;;7370450;19;20140;-73
2021/12/16 05:39:42;;;;;;;22.27;13.30;;;7.20;99.90;;;;;;7372973;19;20598;-74
2021/12/16 05:42:25;;;;;;;25.02;14.70;;;7.30;99.90;;;;;;7369205;19;20206;-77
2021/12/16 05:44:55;;;;;;;22.55;12.00;;;7.30;99.90;;;;;;7378898;19;20513;-77
2021/12/16 05:47:24;;;;;;;20.27;12.38;;;7.30;99.90;;;;;;7372681;19;20139;-77
2021/12/16 05:49:56;;;;;;;19.63;11.35;;;7.10;99.90;;;;;;7380240;19;20642;-77
2021/12/16 05:52:33;;;;;;;21.25;14.43;;;7.10;99.90;;;;;;7386955;19;20132;-77
2021/12/16 05:55:00;;;;;;;22.42;11.85;;;7.00;99.90;;;;;;7380041;19;20147;-76
2021/12/16 05:57:51;;;;;;;21.27;11.90;;;6.90;99.90;;;;;;7380766;19;20128;-76
2021/12/16 06:00:29;;;;;;;20.67;11.70;;;6.70;99.90;;;;;;7382591;19;20149;-77
2021/12/16 06:03:02;;;;;;;27.73;15.32;;;6.60;99.90;;;;;;7381809;19;20210;-76
2021/12/16 06:05:28;;;;;;;24.55;12.25;;;6.80;99.90;;;;;;7375797;19;20136;-76
2021/12/16 06:07:58;;;;;;;19.77;11.95;;;6.70;99.90;;;;;;7378130;19;20151;-76
2021/12/16 06:11:12;;;;;;;19.92;11.38;;;6.80;99.90;;;;;;7383350;19;20131;-77
2021/12/16 06:13:33;;;;;;;23.10;12.07;;;6.90;99.90;;;;;;7385775;19;20148;-77
2021/12/16 06:29:22;;;;;;;22.25;12.95;;;6.70;99.90;;;;;;7379176;19;20437;-72
2021/12/16 06:31:52;;;;;;;21.27;13.38;;;6.80;99.90;;;;;;7376151;19;20565;-72
2021/12/16 06:34:24;;;;;;;23.55;12.65;;;6.80;99.90;;;;;;7379262;19;20136;-71
2021/12/16 06:36:51;;;;;;;23.52;14.32;;;6.60;99.90;;;;;;7378579;19;20214;-72
2021/12/16 06:39:20;;;;;;;24.92;14.02;;;6.40;99.90;;;;;;7380520;19;20202;-71
2021/12/16 06:42:09;;;;;;;25.08;14.40;;;6.40;99.90;;;;;;7368279;19;20135;-71
2021/12/16 06:44:56;;;;;;;26.10;14.90;;;6.40;99.90;;;;;;7378185;19;20131;-72
2021/12/16 06:47:31;;;;;;;23.50;13.07;;;6.40;99.90;;;;;;7372474;19;20255;-73
2021/12/16 06:50:07;;;;;;;24.33;14.90;;;6.20;99.90;;;;;;7376897;19;20128;-72
2021/12/16 06:52:43;;;;;;;21.90;13.68;;;6.00;99.90;;;;;;7381959;19;20146;-71
2021/12/16 06:55:24;;;;;;;26.40;16.23;;;6.10;99.90;;;;;;7363309;19;20166;-71
2021/12/16 06:57:56;;;;;;;26.13;15.15;;;6.20;99.90;;;;;;7366206;19;20135;-74
2021/12/16 07:00:40;;;;;;;28.63;14.73;;;6.30;99.90;;;;;;7379304;19;20621;-75
2021/12/16 07:03:17;;;;;;;23.73;13.35;;;6.60;99.90;;;;;;7374838;19;20476;-76
2021/12/16 07:05:54;;;;;;;22.08;12.55;;;6.60;99.90;;;;;;7380437;19;20164;-76
2021/12/16 07:08:23;;;;;;;26.42;15.48;;;6.70;99.90;;;;;;7378743;19;20155;-75
2021/12/16 07:10:57;;;;;;;27.27;16.13;;;6.80;99.90;;;;;;7378455;19;20131;-75
2021/12/16 07:13:29;;;;;;;22.50;12.77;;;6.90;99.90;;;;;;7377774;19;20131;-75
2021/12/16 07:16:00;;;;;;;24.27;14.75;;;6.90;99.90;;;;;;7374558;19;20199;-73
2021/12/16 07:18:29;;;;;;;21.27;13.52;;;6.70;99.90;;;;;;7349134;19;20143;-75
2021/12/16 07:20:58;;;;;;;22.15;12.63;;;6.70;99.90;;;;;;7375407;19;20545;-76
2021/12/16 07:23:24;;;;;;;21.88;13.48;;;6.70;99.90;;;;;;7371587;19;20144;-79
2021/12/16 07:25:52;;;;;;;25.52;14.25;;;6.80;99.90;;;;;;7368413;19;20509;-81
2021/12/16 07:28:18;;;;;;;21.38;11.60;;;6.50;99.90;;;;;;7374676;19;20151;-77
2021/12/16 07:30:49;;;;;;;23.17;13.48;;;6.40;99.90;;;;;;7370683;19;20544;-76
2021/12/16 07:33:18;;;;;;;19.08;11.75;;;6.30;99.90;;;;;;7364743;19;20597;-70
2021/12/16 07:35:50;;;;;;;20.55;12.63;;;6.40;99.90;;;;;;7370725;19;20138;-72
2021/12/16 07:38:23;;;;;;;21.45;11.20;;;6.40;99.90;;;;;;7371462;19;20210;-72
2021/12/16 07:40:53;;;;;;;21.67;11.02;;;6.30;99.90;;;;;;7380010;19;20143;-72
2021/12/16 07:43:40;;;;;;;23.05;12.38;;;6.20;99.90;;;;;;7381004;19;20136;-73
2021/12/16 07:46:11;;;;;;;20.52;12.05;;;6.20;99.90;;;;;;7381274;19;20143;-73
2021/12/16 07:48:37;;;;;;;22.75;11.93;;;6.20;99.90;;;;;;7378543;19;20154;-73
2021/12/16 07:51:08;;;;;;;21.20;12.55;;;6.20;99.90;;;;;;7379507;19;20153;-73
2021/12/16 07:53:35;;;;;;;20.98;11.07;;;6.30;99.90;;;;;;7379450;19;20157;-73
2021/12/16 07:56:07;;;;;;;19.50;11.57;;;6.50;99.90;;;;;;7369825;19;20159;-73
2021/12/16 07:58:36;;;;;;;21.83;11.00;;;6.50;99.90;;;;;;7381610;19;20150;-73
2021/12/16 08:01:08;;;;;;;19.63;11.35;;;6.70;99.90;;;;;;7376664;19;20131;-75
2021/12/16 08:03:38;;;;;;;23.88;11.57;;;6.70;99.90;;;;;;7375213;19;20139;-76
2021/12/16 08:06:17;;;;;;;21.02;12.15;;;6.80;99.90;;;;;;7380521;19;20136;-75
2021/12/16 08:08:46;;;;;;;20.48;10.90;;;6.80;99.90;;;;;;7379651;19;20780;-76
2021/12/16 08:11:15;;;;;;;22.00;12.48;;;6.90;99.90;;;;;;7375107;19;20139;-76
2021/12/16 08:13:41;;;;;;;26.17;13.75;;;6.90;99.90;;;;;;7376846;19;20143;-76
2021/12/16 08:16:10;;;;;;;20.25;11.38;;;7.00;99.90;;;;;;7374619;19;20429;-77
2021/12/16 08:18:37;;;;;;;20.90;12.00;;;6.90;99.90;;;;;;7363946;19;20152;-76
2021/12/16 08:21:08;;;;;;;21.15;11.60;;;6.80;99.90;;;;;;7380867;19;20151;-78
2021/12/16 08:23:39;;;;;;;18.38;10.38;;;6.80;99.90;;;;;;7378053;19;20598;-77
2021/12/16 08:26:06;;;;;;;17.15;10.18;;;6.70;99.90;;;;;;7376692;19;20144;-76
2021/12/16 08:28:35;;;;;;;20.60;12.43;;;6.60;99.90;;;;;;7371153;19;21695;-77
2021/12/16 08:31:06;;;;;;;23.40;14.45;;;6.50;99.90;;;;;;7377740;19;20520;-75
2021/12/16 08:33:37;;;;;;;18.40;9.70;;;6.70;99.90;;;;;;7378072;19;20167;-75
2021/12/16 08:36:05;;;;;;;19.00;11.23;;;6.90;99.90;;;;;;7378911;19;20146;-75
2021/12/16 08:38:36;;;;;;;28.10;12.40;;;7.10;99.90;;;;;;7369490;19;20127;-77
2021/12/16 08:41:17;;;;;;;21.08;11.73;;;7.30;99.90;;;;;;7375783;19;20154;-78
2021/12/16 08:43:46;;;;;;;17.90;10.70;;;7.40;99.90;;;;;;7376358;19;20263;-77
2021/12/16 08:46:15;;;;;;;20.67;10.90;;;7.40;99.90;;;;;;7370811;19;20147;-77
2021/12/16 08:48:45;;;;;;;15.75;9.85;;;7.40;99.90;;;;;;7380314;19;20385;-77
2021/12/16 08:51:14;;;;;;;16.45;9.82;;;7.30;99.90;;;;;;7377753;19;20143;-77
2021/12/16 08:53:41;;;;;;;21.25;10.75;;;7.40;99.90;;;;;;7376422;19;20128;-77
2021/12/16 08:56:08;;;;;;;16.38;9.85;;;7.50;99.90;;;;;;7369739;19;20155;-77
2021/12/16 08:58:37;;;;;;;21.55;10.65;;;7.60;99.90;;;;;;7375274;19;20140;-77
2021/12/16 09:01:22;;;;;;;15.10;10.32;;;7.70;99.90;;;;;;7383724;19;20147;-77
2021/12/16 09:03:52;;;;;;;18.98;9.68;;;7.60;99.90;;;;;;7386716;19;20132;-75
2021/12/16 09:06:23;;;;;;;17.98;10.88;;;7.70;99.90;;;;;;7387201;19;20131;-75
2021/12/16 09:08:52;;;;;;;15.40;9.05;;;7.80;99.90;;;;;;7382006;19;20685;-76
2021/12/16 09:11:24;;;;;;;18.45;11.15;;;7.80;99.90;;;;;;7381095;19;20135;-76
2021/12/16 09:13:54;;;;;;;22.35;11.40;;;7.50;99.90;;;;;;7377178;19;20240;-76
2021/12/16 09:16:26;;;;;;;18.77;11.13;;;7.40;99.90;;;;;;7384653;19;20164;-76
2021/12/16 09:18:57;;;;;;;17.77;10.95;;;7.40;99.90;;;;;;7384790;19;20147;-76
2021/12/16 09:21:33;;;;;;;16.00;9.90;;;7.50;99.90;;;;;;7387109;19;20143;-77
2021/12/16 09:24:07;;;;;;;18.92;10.43;;;7.30;99.90;;;;;;7382763;19;20454;-75
2021/12/16 09:26:38;;;;;;;18.17;9.88;;;7.20;99.90;;;;;;7384562;19;20167;-76
2021/12/16 09:29:04;;;;;;;20.40;10.20;;;7.30;99.90;;;;;;7379518;19;20201;-76
2021/12/16 09:31:34;;;;;;;17.60;10.75;;;7.20;99.90;;;;;;7384439;19;20217;-76
2021/12/16 09:34:05;;;;;;;19.58;11.63;;;7.20;99.90;;;;;;7383503;19;20140;-76
2021/12/16 09:36:45;;;;;;;18.38;10.32;;;7.20;99.90;;;;;;7386719;19;20144;-74
2021/12/16 09:39:17;;;;;;;20.65;11.55;;;7.20;99.90;;;;;;7384089;19;20162;-74
2021/12/16 09:41:47;;;;;;;19.35;10.88;;;7.10;99.90;;;;;;7384429;19;20622;-74
2021/12/16 09:44:15;;;;;;;18.02;10.40;;;7.00;99.90;;;;;;7377377;19;20135;-74
2021/12/16 09:46:48;;;;;;;19.73;10.95;;;7.20;99.90;;;;;;7384936;19;20203;-74
2021/12/16 09:49:16;;;;;;;18.52;10.38;;;7.20;99.90;;;;;;7383527;19;20136;-74
2021/12/16 09:51:50;;;;;;;21.98;10.82;;;7.20;99.90;;;;;;7384107;19;20511;-74
2021/12/16 09:54:26;;;;;;;17.92;10.88;;;7.20;99.90;;;;;;7373546;19;20215;-74
2021/12/16 09:56:57;;;;;;;25.92;12.77;;;7.30;99.90;;;;;;7387019;19;20202;-74
2021/12/16 09:59:29;;;;;;;19.50;11.55;;;7.40;99.90;;;;;;7384019;19;20135;-74
2021/12/16 10:02:00;;;;;;;18.00;10.70;;;7.30;99.90;;;;;;7383759;19;20140;-74
2021/12/16 10:04:31;;;;;;;18.73;10.63;;;7.20;99.90;;;;;;7384344;19;20119;-75
2021/12/16 10:07:03;;;;;;;21.50;11.30;;;7.30;99.90;;;;;;7333562;19;20679;-74
2021/12/16 10:09:34;;;;;;;21.95;11.18;;;7.50;99.90;;;;;;7370849;19;20262;-73
2021/12/16 10:12:12;;;;;;;21.23;11.85;;;7.60;99.90;;;;;;7355050;19;20143;-76
2021/12/16 10:15:02;;;;;;;22.13;10.85;;;7.60;99.90;;;;;;7368105;19;20130;-74
2021/12/16 10:17:41;;;;;;;21.45;11.52;;;7.60;99.90;;;;;;7368582;19;20147;-74
2021/12/16 10:20:24;;;;;;;20.08;9.90;;;7.40;99.90;;;;;;7370047;19;20143;-72
2021/12/16 10:23:04;;;;;;;17.23;10.50;;;7.20;99.90;;;;;;7364465;19;20139;-73
2021/12/16 10:25:33;;;;;;;19.27;10.48;;;7.00;99.90;;;;;;7369391;19;20135;-71
2021/12/16 10:28:11;;;;;;;22.00;10.70;;;7.00;99.90;;;;;;7370449;19;20670;-76
2021/12/16 10:30:51;;;;;;;20.73;11.35;;;7.20;99.90;;;;;;7372342;19;20135;-73
2021/12/16 10:33:35;;;;;;;20.90;10.50;;;7.60;99.90;;;;;;7364005;19;20143;-73
2021/12/16 10:36:16;;;;;;;23.75;10.95;;;7.90;99.90;;;;;;7373698;19;20139;-72
2021/12/16 10:38:54;;;;;;;21.33;12.48;;;7.90;99.90;;;;;;7363958;19;20152;-70
2021/12/16 10:41:34;;;;;;;17.13;9.80;;;7.90;99.90;;;;;;7372887;19;20139;-74
2021/12/16 10:44:03;;;;;;;19.63;12.48;;;7.80;99.90;;;;;;7370874;19;20150;-72
2021/12/16 10:46:33;;;;;;;18.88;11.57;;;7.70;99.90;;;;;;7377613;19;20553;-74
2021/12/16 10:49:06;;;;;;;17.92;10.38;;;7.80;99.90;;;;;;7379844;19;20164;-73
2021/12/16 10:51:45;;;;;;;23.38;11.48;;;8.10;99.90;;;;;;7370493;19;20131;-71
2021/12/16 10:54:21;;;;;;;16.63;10.65;;;8.30;99.90;;;;;;7368447;19;20719;-76
2021/12/16 10:57:09;;;;;;;16.98;11.30;;;8.40;99.90;;;;;;7364269;19;20234;-73
2021/12/16 10:59:44;;;;;;;20.92;11.48;;;8.60;99.90;;;;;;7369096;19;20144;-74
2021/12/16 11:02:18;;;;;;;17.98;10.70;;;8.70;99.90;;;;;;7378453;19;20165;-73
2021/12/16 11:04:52;;;;;;;18.50;10.85;;;8.90;99.90;;;;;;7382484;19;20172;-73
2021/12/16 11:07:30;;;;;;;22.27;11.95;;;9.00;99.90;;;;;;7368240;19;20131;-74
2021/12/16 11:09:56;;;;;;;15.77;10.40;;;8.90;99.90;;;;;;7368162;19;20523;-74
2021/12/16 11:12:37;;;;;;;17.50;10.35;;;8.60;99.90;;;;;;7363034;19;20644;-71
2021/12/16 11:15:06;;;;;;;16.73;9.48;;;8.50;99.90;;;;;;7355808;19;21151;-75
2021/12/16 11:17:49;;;;;;;19.67;11.15;;;8.50;99.90;;;;;;7362171;19;20673;-76
2021/12/16 11:20:45;;;;;;;18.67;11.10;;;8.50;99.90;;;;;;7367637;19;20151;-76
2021/12/16 11:23:16;;;;;;;16.23;9.82;;;8.50;99.90;;;;;;7369843;19;20155;-76
2021/12/16 11:25:47;;;;;;;24.42;11.82;;;8.60;99.90;;;;;;7367961;19;20159;-73
2021/12/16 11:28:23;;;;;;;19.40;11.65;;;8.70;99.90;;;;;;7356825;19;20380;-75
2021/12/16 11:30:52;;;;;;;19.50;11.45;;;8.70;99.90;;;;;;7366101;19;20491;-75
2021/12/16 11:33:23;;;;;;;20.20;11.15;;;8.70;99.90;;;;;;7369765;19;20159;-76
2021/12/16 11:35:50;;;;;;;18.90;11.73;;;8.70;99.90;;;;;;7360268;19;20738;-75
2021/12/16 11:38:21;;;;;;;20.00;12.05;;;8.70;99.90;;;;;;7381578;19;20246;-74
2021/12/16 11:40:59;;;;;;;19.55;11.88;;;8.80;99.90;;;;;;7369844;19;20136;-71
2021/12/16 11:43:40;;;;;;;20.73;11.98;;;8.80;99.90;;;;;;7375586;19;20523;-70
2021/12/16 11:46:17;;;;;;;18.48;11.45;;;8.90;99.90;;;;;;7367360;19;20646;-70
2021/12/16 11:48:49;;;;;;;25.75;11.52;;;8.90;99.90;;;;;;7363831;19;20149;-71
2021/12/16 11:51:34;;;;;;;18.83;11.63;;;9.00;99.90;;;;;;7376309;19;20127;-70
2021/12/16 11:54:22;;;;;;;19.55;11.20;;;9.10;99.90;;;;;;7369192;19;20139;-71
2021/12/16 11:57:04;;;;;;;20.67;12.95;;;9.30;99.90;;;;;;7369291;19;22064;-73
2021/12/16 11:59:38;;;;;;;18.42;11.25;;;9.20;99.90;;;;;;7364923;19;20140;-72
2021/12/16 12:02:17;;;;;;;19.55;11.52;;;9.30;99.90;;;;;;7375615;19;20146;-72
2021/12/16 12:04:47;;;;;;;18.30;11.73;;;9.30;99.90;;;;;;7360373;19;20157;-73
2021/12/16 12:07:17;;;;;;;19.00;11.07;;;9.30;99.90;;;;;;7356715;19;20182;-70
2021/12/16 12:09:50;;;;;;;20.02;12.25;;;9.40;99.90;;;;;;7369701;19;20148;-72
2021/12/16 12:12:41;;;;;;;20.98;11.82;;;9.50;99.90;;;;;;7373816;19;20132;-72
2021/12/16 12:15:12;;;;;;;18.92;12.05;;;9.50;99.90;;;;;;7367763;19;20156;-72
2021/12/16 12:17:54;;;;;;;19.95;10.98;;;9.40;99.90;;;;;;7380626;19;20138;-72
2021/12/16 12:20:37;;;;;;;21.15;11.40;;;9.10;99.90;;;;;;7369780;19;20627;-72
2021/12/16 12:23:05;;;;;;;17.25;11.15;;;9.00;99.90;;;;;;7374182;19;20956;-72
2021/12/16 12:25:34;;;;;;;18.45;11.07;;;8.90;99.90;;;;;;7374261;19;20127;-72
2021/12/16 12:28:01;;;;;;;19.63;11.40;;;9.10;99.90;;;;;;7375053;19;20139;-73
2021/12/16 12:30:32;;;;;;;20.20;12.00;;;9.20;99.90;;;;;;7370076;19;20152;-73
2021/12/16 12:32:58;;;;;;;14.43;9.55;;;9.40;99.90;;;;;;7364337;19;20379;-69
2021/12/16 12:35:29;;;;;;;22.77;11.93;;;9.40;99.90;;;;;;7383799;19;20148;-72
2021/12/16 12:38:02;;;;;;;19.92;11.25;;;9.50;99.90;;;;;;7392251;19;20139;-73
2021/12/16 12:40:37;;;;;;;19.88;12.23;;;9.70;99.90;;;;;;7379360;19;20131;-79
2021/12/16 12:43:06;;;;;;;16.90;10.50;;;9.70;99.90;;;;;;7393498;19;20127;-79
2021/12/16 12:45:38;;;;;;;18.38;11.80;;;9.50;99.90;;;;;;7386655;19;20124;-78
2021/12/16 12:48:14;;;;;;;19.27;11.75;;;9.30;99.90;;;;;;7392473;19;20371;-79
2021/12/16 12:50:43;;;;;;;17.90;11.10;;;9.50;99.90;;;;;;7390344;19;20135;-75
2021/12/16 12:53:38;;;;;;;16.60;11.50;;;9.40;99.90;;;;;;7394502;19;20660;-78
2021/12/16 12:56:29;;;;;;;16.47;10.97;;;9.40;99.90;;;;;;7376413;19;20182;-76
2021/12/16 12:59:11;;;;;;;16.02;10.82;;;9.50;99.90;;;;;;7392704;19;20828;-76
2021/12/16 13:01:44;;;;;;;19.45;10.05;;;9.40;99.90;;;;;;7385751;19;20120;-79
2021/12/16 13:04:30;;;;;;;19.40;10.95;;;9.60;99.90;;;;;;7395492;19;20120;-78
2021/12/16 13:07:10;;;;;;;18.20;10.90;;;9.80;99.90;;;;;;7392889;19;20132;-77
2021/12/16 13:09:39;;;;;;;19.27;11.67;;;9.90;99.90;;;;;;7386227;19;21244;-77
2021/12/16 13:12:48;;;;;;;17.05;10.45;;;10.00;99.90;;;;;;7387160;19;20400;-76
2021/12/16 13:15:32;;;;;;;17.57;10.00;;;10.10;99.90;;;;;;7355527;19;20135;-73
2021/12/16 13:27:03;;;;;;;16.70;10.07;;;9.70;99.90;;;;;;7392540;19;20454;-75
2021/12/16 13:32:09;;;;;;;19.42;11.55;;;9.70;99.90;;;;;;7380055;19;20412;-76
2021/12/16 13:34:47;;;;;;;19.95;11.10;;;9.80;99.90;;;;;;7394749;19;20124;-75
2021/12/16 13:37:37;;;;;;;24.60;14.00;;;9.90;99.90;;;;;;7384424;19;20135;-75
2021/12/16 13:40:12;;;;;;;23.53;13.27;;;9.90;99.90;;;;;;7375164;19;20397;-79
2021/12/16 13:43:00;;;;;;;17.47;11.30;;;9.90;99.90;;;;;;7394438;19;20631;-76
2021/12/16 13:45:33;;;;;;;17.55;11.02;;;9.80;99.90;;;;;;7390810;19;20409;-74
2021/12/16 13:48:31;;;;;;;16.83;11.18;;;9.80;99.90;;;;;;7401559;19;20128;-75
2021/12/16 14:05:48;;;;;;;19.63;11.88;;;9.60;99.90;;;;;;7395686;19;20140;-75
2021/12/16 14:08:31;;;;;;;15.60;10.23;;;9.50;99.90;;;;;;7397971;19;20155;-76
2021/12/16 14:11:04;;;;;;;16.05;10.45;;;9.30;99.90;;;;;;7385260;19;20357;-73
2021/12/16 14:17:07;;;;;;;20.73;11.00;;;9.00;99.90;;;;;;7395823;19;20404;-71
2021/12/16 14:48:22;;;;;;;17.98;11.95;;;8.70;99.90;;;;;;7392858;19;20127;-71
2021/12/16 14:51:09;;;;;;;16.58;11.07;;;8.60;99.90;;;;;;7399491;19;20132;-71
2021/12/16 14:53:47;;;;;;;20.35;12.23;;;8.60;99.90;;;;;;7398706;19;20143;-71
2021/12/16 14:56:31;;;;;;;17.73;9.95;;;8.70;99.90;;;;;;7393229;19;20191;-72
2021/12/16 14:59:05;;;;;;;18.05;9.82;;;8.80;99.90;;;;;;7397144;19;20131;-71
2021/12/16 15:01:39;;;;;;;18.30;10.63;;;8.40;99.90;;;;;;7386204;19;20124;-70
2021/12/16 15:04:09;;;;;;;17.17;11.48;;;8.30;99.90;;;;;;7388862;19;20275;-70
2021/12/16 15:06:46;;;;;;;23.52;11.60;;;8.20;99.90;;;;;;7362015;19;20467;-75
2021/12/16 15:09:37;;;;;;;16.30;10.77;;;8.10;99.90;;;;;;7357528;19;20211;-73
2021/12/16 15:12:26;;;;;;;19.05;11.13;;;8.20;99.90;;;;;;7364603;19;20525;-77
2021/12/16 15:15:23;;;;;;;17.08;10.73;;;8.20;99.90;;;;;;7375946;19;20527;-70
2021/12/16 15:38:19;;;;;;;17.35;11.13;;;7.60;99.90;;;;;;7372881;19;20124;-67
2021/12/16 15:42:45;;;;;;;19.33;10.68;;;7.50;99.90;;;;;;7370334;19;20140;-69
2021/12/16 15:43:49;;;;;;;14.07;10.50;;;7.30;99.90;;;;;;7376335;19;20602;-67
2021/12/16 15:46:18;;;;;;;22.55;10.65;;;7.10;99.90;;;;;;7369001;19;20668;-68
2021/12/16 15:48:51;;;;;;;18.23;11.95;;;7.00;99.90;;;;;;7379230;19;20509;-68
2021/12/16 15:51:22;;;;;;;16.83;11.05;;;7.00;99.90;;;;;;7372400;19;20132;-69
2021/12/16 15:53:54;;;;;;;16.92;11.00;;;6.90;99.90;;;;;;7359344;19;21761;-70
2021/12/16 15:56:34;;;;;;;21.02;11.20;;;6.90;99.90;;;;;;7373939;19;20191;-71
2021/12/16 15:59:05;;;;;;;19.35;11.80;;;6.70;99.90;;;;;;7377391;19;20131;-71
2021/12/16 16:01:38;;;;;;;17.00;11.38;;;6.60;99.90;;;;;;7375956;19;20123;-71
2021/12/16 16:04:19;;;;;;;17.75;11.32;;;6.50;99.90;;;;;;7375314;19;20135;-71
2021/12/16 16:06:57;;;;;;;21.00;12.25;;;6.60;99.90;;;;;;7369935;19;20477;-71
2021/12/16 16:09:31;;;;;;;19.42;11.90;;;6.50;99.90;;;;;;7373142;19;20163;-71
2021/12/16 16:12:00;;;;;;;18.17;11.57;;;6.50;99.90;;;;;;7377752;19;20549;-71
2021/12/16 16:14:32;;;;;;;18.45;11.52;;;6.40;99.90;;;;;;7369874;19;20610;-71
2021/12/16 16:17:02;;;;;;;25.40;12.35;;;6.30;99.90;;;;;;7355983;19;20135;-70
2021/12/16 16:19:37;;;;;;;21.52;12.18;;;6.20;99.90;;;;;;7367877;19;20136;-67
2021/12/16 16:22:07;;;;;;;22.20;10.88;;;6.20;99.90;;;;;;7367038;19;20139;-70
2021/12/16 16:24:44;;;;;;;18.08;11.43;;;6.30;99.90;;;;;;7344777;19;20143;-71
2021/12/16 16:27:23;;;;;;;23.88;12.52;;;6.20;99.90;;;;;;7372705;19;20131;-72
2021/12/16 16:29:53;;;;;;;21.73;12.52;;;6.00;99.90;;;;;;7380488;19;20151;-72
2021/12/16 16:32:25;;;;;;;24.05;13.05;;;6.00;99.90;;;;;;7380287;19;20140;-72
2021/12/16 16:34:58;;;;;;;18.70;12.35;;;6.00;99.90;;;;;;7380839;19;20175;-71
2021/12/16 16:37:36;;;;;;;20.42;11.63;;;6.00;99.90;;;;;;7367599;19;20225;-74
2021/12/16 16:40:11;;;;;;;18.92;12.52;;;6.00;99.90;;;;;;7371895;19;20160;-74
2021/12/16 16:42:41;;;;;;;19.83;12.50;;;6.10;99.90;;;;;;7363078;19;20127;-70
2021/12/16 16:45:19;;;;;;;20.92;12.57;;;6.00;99.90;;;;;;7366813;19;20164;-76
2021/12/16 16:47:52;;;;;;;17.98;11.85;;;6.00;99.90;;;;;;7360304;19;20750;-73
2021/12/16 16:50:22;;;;;;;20.48;12.35;;;6.10;99.90;;;;;;7357809;19;20136;-71
2021/12/16 16:52:51;;;;;;;20.17;11.73;;;6.10;99.90;;;;;;7361136;19;20139;-71
2021/12/16 16:55:26;;;;;;;23.70;13.10;;;6.00;99.90;;;;;;7364254;19;20151;-69
2021/12/16 16:57:56;;;;;;;18.77;11.65;;;6.10;99.90;;;;;;7372771;19;20620;-68
2021/12/16 17:00:52;;;;;;;17.60;10.85;;;6.10;99.90;;;;;;7355821;19;20177;-73
2021/12/16 17:03:25;;;;;;;19.80;12.88;;;6.00;99.90;;;;;;7368789;19;20148;-72
2021/12/16 17:05:57;;;;;;;21.55;11.68;;;6.10;99.90;;;;;;7363670;19;20865;-72
2021/12/16 17:08:35;;;;;;;17.88;11.70;;;6.10;99.90;;;;;;7367467;19;20657;-71
2021/12/16 17:11:16;;;;;;;17.83;11.38;;;5.90;99.90;;;;;;7359460;19;20661;-74
2021/12/16 17:18:58;;;;;;;19.98;11.90;;;5.90;99.90;;;;;;7361823;19;20162;-73